EXS776 LEAL-EGPH
Flight info
| Callsign | EXS776 |
|---|---|
| Flight time | N/A |
| Altitude | 36000 |
| Route | MITOS DCT COMPI DCT DIKUT DCT ASDIR DCT OSLAP DCT USKAR DCT MOPAS DCT GIROM DCT GONUP DCT TUPAR DCT RALIX DCT IBSUS DCT AKIKI DCT GARMI UN867 VASUX DCT TNT UN57 POL UN601 RIBEL DCT ABEVI DCT INPIP |
| Aircraft | A21N/M-SDE2E3FGHIRWXY/LB1 |
Departure
| Time | 2026-05-06 16:55 |
|---|---|
| Airport | Alicante-Elche Miguel Hernández Airport (LEAL) |
Arrival
| Time | N/A |
|---|---|
| Airport | Edinburgh Airport (EGPH) |
| Time | Latitude | Longitude | Altitude | Speed | Heading |
|---|---|---|---|---|---|
| 2026-05-06 16:42 | 38.28519 | -0.55096 | 98 ft | 0 kts | 330° |
| 2026-05-06 16:46 | 38.28503 | -0.55085 | 98 ft | 4 kts | 329° |
| 2026-05-06 16:46 | 38.28480 | -0.55066 | 96 ft | 4 kts | 326° |
| 2026-05-06 16:46 | 38.28459 | -0.55046 | 94 ft | 4 kts | 322° |
| 2026-05-06 16:47 | 38.28438 | -0.55024 | 93 ft | 4 kts | 315° |
| 2026-05-06 16:47 | 38.28421 | -0.54999 | 92 ft | 4 kts | 298° |
| 2026-05-06 16:47 | 38.28415 | -0.54980 | 91 ft | 1 kts | 279° |
| 2026-05-06 16:48 | 38.28415 | -0.54979 | 91 ft | 0 kts | 279° |
| 2026-05-06 16:49 | 38.28415 | -0.54980 | 91 ft | 1 kts | 279° |
| 2026-05-06 16:50 | 38.28418 | -0.55004 | 92 ft | 5 kts | 280° |
| 2026-05-06 16:50 | 38.28426 | -0.55061 | 93 ft | 9 kts | 280° |
| 2026-05-06 16:50 | 38.28403 | -0.55142 | 94 ft | 11 kts | 234° |
| 2026-05-06 16:50 | 38.28369 | -0.55199 | 91 ft | 12 kts | 227° |
| 2026-05-06 16:51 | 38.28331 | -0.55347 | 93 ft | 16 kts | 276° |
| 2026-05-06 16:51 | 38.28354 | -0.55505 | 100 ft | 20 kts | 281° |
| 2026-05-06 16:51 | 38.28381 | -0.55685 | 101 ft | 22 kts | 280° |
| 2026-05-06 16:51 | 38.28408 | -0.55883 | 102 ft | 23 kts | 280° |
| 2026-05-06 16:52 | 38.28436 | -0.56095 | 102 ft | 25 kts | 279° |
| 2026-05-06 16:52 | 38.28468 | -0.56325 | 110 ft | 28 kts | 280° |
| 2026-05-06 16:52 | 38.28502 | -0.56566 | 120 ft | 29 kts | 280° |
| 2026-05-06 16:52 | 38.28539 | -0.56828 | 132 ft | 31 kts | 280° |
| 2026-05-06 16:53 | 38.28578 | -0.57114 | 144 ft | 34 kts | 280° |
| 2026-05-06 16:53 | 38.28618 | -0.57392 | 156 ft | 24 kts | 280° |
| 2026-05-06 16:53 | 38.28576 | -0.57500 | 158 ft | 0 kts | 194° |
| 2026-05-06 16:53 | 38.28570 | -0.57502 | 158 ft | 2 kts | 193° |
| 2026-05-06 16:54 | 38.28553 | -0.57506 | 158 ft | 3 kts | 193° |
| 2026-05-06 16:54 | 38.28521 | -0.57516 | 158 ft | 6 kts | 193° |
| 2026-05-06 16:54 | 38.28469 | -0.57509 | 158 ft | 9 kts | 151° |
| 2026-05-06 16:54 | 38.28447 | -0.57466 | 158 ft | 0 kts | 101° |
| 2026-05-06 16:55 | 38.28417 | -0.57254 | 152 ft | 61 kts | 99° |
| 2026-05-06 16:55 | 38.28304 | -0.56436 | 124 ft | 125 kts | 100° |
| 2026-05-06 16:55 | 38.28131 | -0.55222 | 386 ft | 144 kts | 99° |
| 2026-05-06 16:55 | 38.27895 | -0.53968 | 942 ft | 146 kts | 103° |
| 2026-05-06 16:56 | 38.27707 | -0.52650 | 1439 ft | 161 kts | 98° |
| 2026-05-06 16:56 | 38.27500 | -0.51164 | 1885 ft | 181 kts | 100° |
| 2026-05-06 16:56 | 38.27375 | -0.49519 | 2293 ft | 200 kts | 84° |
| 2026-05-06 16:56 | 38.27841 | -0.47732 | 2700 ft | 230 kts | 61° |
| 2026-05-06 16:57 | 38.28800 | -0.45949 | 3332 ft | 253 kts | 56° |
| 2026-05-06 16:57 | 38.29831 | -0.44116 | 4219 ft | 261 kts | 56° |
| 2026-05-06 16:57 | 38.30883 | -0.42219 | 5171 ft | 266 kts | 56° |
| 2026-05-06 16:57 | 38.31955 | -0.40254 | 6141 ft | 270 kts | 56° |
| 2026-05-06 16:58 | 38.32873 | -0.38153 | 7011 ft | 275 kts | 67° |
| 2026-05-06 16:58 | 38.33368 | -0.36651 | 7581 ft | 279 kts | 69° |
| 2026-05-06 16:58 | 38.34099 | -0.34327 | 8451 ft | 285 kts | 68° |
| 2026-05-06 16:58 | 38.34841 | -0.31966 | 9395 ft | 290 kts | 68° |
| 2026-05-06 16:59 | 38.35592 | -0.29580 | 10259 ft | 298 kts | 67° |
| 2026-05-06 16:59 | 38.36401 | -0.27044 | 10754 ft | 318 kts | 66° |
| 2026-05-06 16:59 | 38.37293 | -0.24363 | 11340 ft | 333 kts | 66° |
| 2026-05-06 16:59 | 38.38212 | -0.21617 | 12145 ft | 340 kts | 66° |
| 2026-05-06 17:00 | 38.39139 | -0.18851 | 12974 ft | 345 kts | 66° |
| 2026-05-06 17:00 | 38.40088 | -0.16012 | 13768 ft | 351 kts | 66° |
| 2026-05-06 17:00 | 38.41048 | -0.13119 | 14536 ft | 357 kts | 66° |
| 2026-05-06 17:00 | 38.42028 | -0.10175 | 15274 ft | 363 kts | 66° |
| 2026-05-06 17:01 | 38.43036 | -0.07194 | 15999 ft | 369 kts | 63° |
| 2026-05-06 17:01 | 38.44435 | -0.04444 | 16693 ft | 372 kts | 45° |
| 2026-05-06 17:01 | 38.46449 | -0.02390 | 17354 ft | 372 kts | 25° |
| 2026-05-06 17:01 | 38.48845 | -0.01295 | 18005 ft | 369 kts | 6° |
| 2026-05-06 17:02 | 38.51414 | -0.01120 | 18675 ft | 370 kts | 355° |
| 2026-05-06 17:02 | 38.53996 | -0.01185 | 19338 ft | 374 kts | 354° |
| 2026-05-06 17:02 | 38.56621 | -0.01238 | 19989 ft | 378 kts | 354° |
| 2026-05-06 17:02 | 38.59277 | -0.01261 | 20632 ft | 383 kts | 355° |
| 2026-05-06 17:03 | 38.61925 | -0.01253 | 21243 ft | 388 kts | 355° |
| 2026-05-06 17:03 | 38.64652 | -0.01239 | 21851 ft | 392 kts | 355° |
| 2026-05-06 17:03 | 38.67397 | -0.01223 | 22388 ft | 396 kts | 355° |
| 2026-05-06 17:03 | 38.70173 | -0.01208 | 22953 ft | 400 kts | 354° |
| 2026-05-06 17:04 | 38.72977 | -0.01193 | 23507 ft | 405 kts | 354° |
| 2026-05-06 17:04 | 38.75778 | -0.01178 | 24024 ft | 409 kts | 354° |
| 2026-05-06 17:04 | 38.78637 | -0.01167 | 24542 ft | 413 kts | 354° |
| 2026-05-06 17:04 | 38.81528 | -0.01151 | 25049 ft | 416 kts | 354° |
| 2026-05-06 17:05 | 38.84441 | -0.01132 | 25554 ft | 419 kts | 354° |
| 2026-05-06 17:05 | 38.87380 | -0.01109 | 26032 ft | 423 kts | 354° |
| 2026-05-06 17:05 | 38.90328 | -0.01090 | 26480 ft | 426 kts | 354° |
| 2026-05-06 17:05 | 38.93315 | -0.01071 | 26919 ft | 430 kts | 354° |
| 2026-05-06 17:06 | 38.96280 | -0.01049 | 27355 ft | 434 kts | 354° |
| 2026-05-06 17:06 | 38.99318 | -0.01028 | 27786 ft | 437 kts | 354° |
| 2026-05-06 17:06 | 39.02371 | -0.01009 | 28191 ft | 441 kts | 353° |
| 2026-05-06 17:06 | 39.05423 | -0.00993 | 28596 ft | 443 kts | 353° |
| 2026-05-06 17:07 | 39.08536 | -0.00970 | 28985 ft | 446 kts | 353° |
| 2026-05-06 17:07 | 39.11650 | -0.00947 | 29363 ft | 449 kts | 353° |
| 2026-05-06 17:07 | 39.14791 | -0.00927 | 29729 ft | 451 kts | 353° |
| 2026-05-06 17:07 | 39.17901 | -0.00908 | 30061 ft | 453 kts | 353° |
| 2026-05-06 17:08 | 39.21067 | -0.00889 | 30395 ft | 456 kts | 353° |
| 2026-05-06 17:08 | 39.24257 | -0.00869 | 30721 ft | 458 kts | 353° |
| 2026-05-06 17:08 | 39.27457 | -0.00847 | 31035 ft | 460 kts | 353° |
| 2026-05-06 17:08 | 39.30672 | -0.00825 | 31320 ft | 462 kts | 353° |
| 2026-05-06 17:09 | 39.33869 | -0.00763 | 31606 ft | 468 kts | 356° |
| 2026-05-06 17:09 | 39.37130 | -0.00090 | 31920 ft | 481 kts | 8° |
| 2026-05-06 17:09 | 39.40352 | 0.01092 | 32321 ft | 482 kts | 10° |
| 2026-05-06 17:09 | 39.43571 | 0.02335 | 32697 ft | 482 kts | 10° |
| 2026-05-06 17:10 | 39.46795 | 0.03567 | 33055 ft | 481 kts | 10° |
| 2026-05-06 17:10 | 39.49983 | 0.04764 | 33403 ft | 480 kts | 9° |
| 2026-05-06 17:10 | 39.53204 | 0.05955 | 33734 ft | 480 kts | 9° |
| 2026-05-06 17:10 | 39.56389 | 0.07111 | 34054 ft | 480 kts | 8° |
| 2026-05-06 17:11 | 39.59602 | 0.08287 | 34416 ft | 478 kts | 9° |
| 2026-05-06 17:11 | 39.62802 | 0.09478 | 34710 ft | 478 kts | 9° |
| 2026-05-06 17:11 | 39.66011 | 0.10684 | 34979 ft | 478 kts | 9° |
| 2026-05-06 17:11 | 39.69213 | 0.11883 | 35258 ft | 478 kts | 9° |
| 2026-05-06 17:12 | 39.72373 | 0.13063 | 35530 ft | 477 kts | 9° |
| 2026-05-06 17:12 | 39.75577 | 0.14262 | 35808 ft | 476 kts | 9° |
| 2026-05-06 17:12 | 39.78774 | 0.15443 | 36007 ft | 477 kts | 9° |
| 2026-05-06 17:13 | 39.85122 | 0.17787 | 36020 ft | 476 kts | 9° |
| 2026-05-06 17:13 | 39.91502 | 0.20162 | 36008 ft | 477 kts | 9° |
| 2026-05-06 17:14 | 39.97867 | 0.22551 | 36002 ft | 478 kts | 9° |
| 2026-05-06 17:14 | 40.04239 | 0.24941 | 36001 ft | 478 kts | 9° |
| 2026-05-06 17:15 | 40.10639 | 0.27345 | 36000 ft | 477 kts | 9° |
| 2026-05-06 17:15 | 40.17032 | 0.29750 | 36004 ft | 478 kts | 10° |
| 2026-05-06 17:16 | 40.23373 | 0.32142 | 36000 ft | 478 kts | 9° |
| 2026-05-06 17:16 | 40.29775 | 0.34562 | 36001 ft | 478 kts | 10° |
| 2026-05-06 17:17 | 40.36150 | 0.36984 | 36005 ft | 477 kts | 10° |
| 2026-05-06 17:17 | 40.42500 | 0.39396 | 36000 ft | 477 kts | 10° |
| 2026-05-06 17:18 | 40.48895 | 0.41829 | 35986 ft | 477 kts | 10° |
| 2026-05-06 17:18 | 40.55241 | 0.44249 | 35990 ft | 476 kts | 10° |
| 2026-05-06 17:19 | 40.61609 | 0.46694 | 35989 ft | 476 kts | 10° |
| 2026-05-06 17:19 | 40.67941 | 0.49123 | 35992 ft | 476 kts | 10° |
| 2026-05-06 17:20 | 40.74326 | 0.51567 | 35990 ft | 476 kts | 10° |
| 2026-05-06 17:20 | 40.80655 | 0.53996 | 35987 ft | 476 kts | 10° |
| 2026-05-06 17:21 | 40.87027 | 0.56455 | 35981 ft | 475 kts | 10° |
| 2026-05-06 17:21 | 40.93347 | 0.58893 | 35977 ft | 475 kts | 10° |
| 2026-05-06 17:22 | 40.99661 | 0.61338 | 35977 ft | 474 kts | 11° |
| 2026-05-06 17:22 | 41.06008 | 0.63798 | 35978 ft | 475 kts | 10° |
| 2026-05-06 17:23 | 41.12334 | 0.66256 | 35979 ft | 474 kts | 11° |
| 2026-05-06 17:23 | 41.18684 | 0.68725 | 35980 ft | 474 kts | 11° |
| 2026-05-06 17:24 | 41.24984 | 0.71192 | 35981 ft | 474 kts | 11° |
| 2026-05-06 17:24 | 41.31316 | 0.73662 | 35981 ft | 474 kts | 11° |
| 2026-05-06 17:25 | 41.37628 | 0.76134 | 35979 ft | 473 kts | 11° |
| 2026-05-06 17:25 | 41.43919 | 0.78605 | 35980 ft | 473 kts | 11° |
| 2026-05-06 17:26 | 41.50232 | 0.81090 | 35979 ft | 473 kts | 11° |
| 2026-05-06 17:26 | 41.56566 | 0.83577 | 35982 ft | 473 kts | 11° |
| 2026-05-06 17:27 | 41.62899 | 0.86078 | 35979 ft | 474 kts | 11° |
| 2026-05-06 17:27 | 41.69191 | 0.88566 | 35979 ft | 474 kts | 11° |
| 2026-05-06 17:28 | 41.75494 | 0.91086 | 35982 ft | 474 kts | 11° |
| 2026-05-06 17:28 | 41.81820 | 0.93587 | 35981 ft | 474 kts | 11° |
| 2026-05-06 17:29 | 41.88148 | 0.96094 | 35990 ft | 473 kts | 11° |
| 2026-05-06 17:29 | 41.94445 | 0.98609 | 35985 ft | 474 kts | 11° |
| 2026-05-06 17:30 | 42.00750 | 1.01136 | 35990 ft | 474 kts | 11° |
| 2026-05-06 17:30 | 42.07075 | 1.03668 | 35978 ft | 471 kts | 12° |
| 2026-05-06 17:31 | 42.13388 | 1.06093 | 35976 ft | 468 kts | 5° |
| 2026-05-06 17:31 | 42.16557 | 1.06421 | 35980 ft | 457 kts | 352° |
| 2026-05-06 17:31 | 42.19726 | 1.06128 | 35985 ft | 455 kts | 349° |
| 2026-05-06 17:32 | 42.26041 | 1.05365 | 35982 ft | 454 kts | 349° |
| 2026-05-06 17:32 | 42.32293 | 1.04670 | 35980 ft | 454 kts | 349° |
| 2026-05-06 17:33 | 42.38570 | 1.03995 | 35976 ft | 454 kts | 349° |
| 2026-05-06 17:33 | 42.44892 | 1.03310 | 35976 ft | 454 kts | 349° |
| 2026-05-06 17:34 | 42.51151 | 1.02630 | 35985 ft | 454 kts | 349° |
| 2026-05-06 17:34 | 42.57460 | 1.01943 | 35975 ft | 454 kts | 349° |
| 2026-05-06 17:35 | 42.63764 | 1.01258 | 35993 ft | 453 kts | 349° |
| 2026-05-06 17:35 | 42.70018 | 1.00566 | 35998 ft | 453 kts | 349° |
| 2026-05-06 17:36 | 42.79365 | 0.99143 | 36003 ft | 446 kts | 340° |
| 2026-05-06 17:36 | 42.85384 | 0.97051 | 36010 ft | 445 kts | 339° |
| 2026-05-06 17:37 | 42.91395 | 0.94955 | 35999 ft | 445 kts | 340° |
| 2026-05-06 17:37 | 42.97378 | 0.92897 | 36015 ft | 445 kts | 340° |
| 2026-05-06 17:38 | 43.03409 | 0.90817 | 36020 ft | 445 kts | 340° |
| 2026-05-06 17:38 | 43.09392 | 0.88737 | 36027 ft | 445 kts | 340° |
| 2026-05-06 17:39 | 43.15418 | 0.86630 | 36029 ft | 445 kts | 340° |
| 2026-05-06 17:39 | 43.21393 | 0.84535 | 36035 ft | 444 kts | 340° |
| 2026-05-06 17:40 | 43.27374 | 0.82446 | 36040 ft | 444 kts | 340° |
| 2026-05-06 17:40 | 43.33377 | 0.80349 | 36049 ft | 444 kts | 341° |
| 2026-05-06 17:41 | 43.39377 | 0.78248 | 36037 ft | 444 kts | 341° |
| 2026-05-06 17:41 | 43.45337 | 0.76151 | 36038 ft | 443 kts | 340° |
| 2026-05-06 17:42 | 43.51211 | 0.73579 | 36037 ft | 441 kts | 337° |
| 2026-05-06 17:42 | 43.57008 | 0.70929 | 36036 ft | 441 kts | 337° |
| 2026-05-06 17:43 | 43.62861 | 0.68256 | 36039 ft | 441 kts | 337° |
| 2026-05-06 17:43 | 43.68658 | 0.65609 | 36037 ft | 441 kts | 337° |
| 2026-05-06 17:44 | 43.74435 | 0.62970 | 36041 ft | 441 kts | 337° |
| 2026-05-06 17:44 | 43.80264 | 0.60294 | 36038 ft | 441 kts | 337° |
| 2026-05-06 17:45 | 43.86096 | 0.57608 | 36038 ft | 440 kts | 338° |
| 2026-05-06 17:45 | 43.91874 | 0.54936 | 36034 ft | 440 kts | 338° |
| 2026-05-06 17:46 | 43.97696 | 0.52253 | 36031 ft | 440 kts | 338° |
| 2026-05-06 17:46 | 44.03475 | 0.49573 | 36036 ft | 440 kts | 338° |
| 2026-05-06 17:47 | 44.09310 | 0.46871 | 36050 ft | 440 kts | 338° |
| 2026-05-06 17:47 | 44.15090 | 0.44197 | 36046 ft | 439 kts | 338° |
| 2026-05-06 17:48 | 44.20896 | 0.41499 | 36035 ft | 439 kts | 338° |
| 2026-05-06 17:48 | 44.26707 | 0.38793 | 36033 ft | 439 kts | 338° |
| 2026-05-06 17:49 | 44.32485 | 0.36096 | 36030 ft | 439 kts | 338° |
| 2026-05-06 17:49 | 44.38292 | 0.33374 | 36030 ft | 440 kts | 338° |
| 2026-05-06 17:50 | 44.44058 | 0.30665 | 36029 ft | 439 kts | 338° |
| 2026-05-06 17:50 | 44.49874 | 0.27931 | 36029 ft | 440 kts | 338° |
| 2026-05-06 17:51 | 44.55652 | 0.25211 | 36021 ft | 439 kts | 338° |
| 2026-05-06 17:51 | 44.61425 | 0.22485 | 36020 ft | 439 kts | 338° |
| 2026-05-06 17:52 | 44.67236 | 0.19729 | 36021 ft | 439 kts | 338° |
| 2026-05-06 17:52 | 44.73000 | 0.16999 | 36019 ft | 439 kts | 338° |
| 2026-05-06 17:53 | 44.78820 | 0.14233 | 36016 ft | 439 kts | 338° |
| 2026-05-06 17:53 | 44.84599 | 0.11482 | 36015 ft | 439 kts | 338° |
| 2026-05-06 17:54 | 44.90358 | 0.08733 | 36012 ft | 439 kts | 339° |
| 2026-05-06 17:54 | 44.96147 | 0.05966 | 36007 ft | 438 kts | 339° |
| 2026-05-06 17:55 | 45.01900 | 0.03210 | 36007 ft | 438 kts | 339° |
| 2026-05-06 17:55 | 45.07686 | 0.00432 | 36012 ft | 437 kts | 339° |
| 2026-05-06 17:56 | 45.13391 | -0.02325 | 36013 ft | 431 kts | 339° |
| 2026-05-06 17:56 | 45.18081 | -0.04594 | 36007 ft | 426 kts | 339° |
| 2026-05-06 17:57 | 45.24619 | -0.07755 | 36013 ft | 426 kts | 339° |
| 2026-05-06 17:57 | 45.29302 | -0.10025 | 36011 ft | 425 kts | 339° |
| 2026-05-06 17:58 | 45.35813 | -0.13187 | 36008 ft | 425 kts | 339° |
| 2026-05-06 17:58 | 45.40473 | -0.15452 | 36010 ft | 426 kts | 339° |
| 2026-05-06 17:59 | 45.46075 | -0.18179 | 36011 ft | 425 kts | 339° |
| 2026-05-06 17:59 | 45.51683 | -0.20916 | 36013 ft | 425 kts | 339° |
| 2026-05-06 18:00 | 45.57251 | -0.23643 | 36013 ft | 425 kts | 339° |
| 2026-05-06 18:00 | 45.62871 | -0.26396 | 36013 ft | 424 kts | 339° |
| 2026-05-06 18:01 | 45.68425 | -0.29128 | 35997 ft | 423 kts | 339° |
| 2026-05-06 18:01 | 45.74005 | -0.31877 | 36001 ft | 423 kts | 339° |
| 2026-05-06 18:02 | 45.79549 | -0.34609 | 36003 ft | 423 kts | 339° |
| 2026-05-06 18:02 | 45.85084 | -0.37344 | 36007 ft | 422 kts | 339° |
| 2026-05-06 18:03 | 45.90638 | -0.40100 | 36009 ft | 422 kts | 339° |
| 2026-05-06 18:03 | 45.96170 | -0.42849 | 36012 ft | 422 kts | 339° |
| 2026-05-06 18:04 | 46.01737 | -0.45617 | 36010 ft | 422 kts | 339° |
| 2026-05-06 18:04 | 46.07255 | -0.48366 | 36017 ft | 422 kts | 340° |
| 2026-05-06 18:05 | 46.12816 | -0.51148 | 36022 ft | 422 kts | 340° |
| 2026-05-06 18:05 | 46.18356 | -0.53920 | 36019 ft | 422 kts | 340° |
| 2026-05-06 18:06 | 46.23882 | -0.56694 | 36018 ft | 422 kts | 340° |
| 2026-05-06 18:06 | 46.29445 | -0.59493 | 36024 ft | 422 kts | 339° |